Time;durP1;ratioP1;P1;durP2;ratioP2;P2;SDS_P1;SDS_P2;PMS_P1;PMS_P2;Temp;Humidity;BMP_temperature;BMP_pressure;BME280_temperature;BME280_humidity;BME280_pressure;Samples;Min_cycle;Max_cycle;Signal;HPM_P1;HPM_P2
2023/08/10 00:01:47;;;;;;;2.67;2.03;;;;;;;-145.69;68.52;52042.38;5092591;28;20205;-83
2023/08/10 00:04:13;;;;;;;5.25;2.17;;;;;;;-145.69;68.68;52028.53;5092761;28;20189;-84
2023/08/10 00:06:40;;;;;;;5.10;1.95;;;;;;;-145.69;68.41;52036.44;5093319;28;20197;-83
2023/08/10 00:09:08;;;;;;;3.53;2.50;;;;;;;-145.69;68.10;52044.38;5092794;28;20209;-84
2023/08/10 00:11:35;;;;;;;5.25;2.50;;;;;;;-145.69;68.08;52064.16;5092925;28;20206;-83
2023/08/10 00:14:03;;;;;;;8.98;2.65;;;;;;;-145.69;68.06;52040.41;5092490;28;20222;-85
2023/08/10 00:16:29;;;;;;;4.85;2.40;;;;;;;-145.69;68.22;52052.28;5092862;28;20260;-82
2023/08/10 00:18:56;;;;;;;4.00;2.58;;;;;;;-145.69;68.29;52020.59;5092950;28;20205;-83
2023/08/10 00:21:22;;;;;;;8.23;2.20;;;;;;;-145.69;68.24;52008.72;5092929;28;20694;-83
2023/08/10 00:23:49;;;;;;;5.05;2.13;;;;;;;-145.69;68.14;52044.38;5093104;28;20220;-83
2023/08/10 00:26:16;;;;;;;9.18;2.22;;;;;;;-145.69;68.36;52060.22;5093079;28;20194;-83
2023/08/10 00:28:44;;;;;;;3.05;2.13;;;;;;;-145.69;69.09;52054.25;5092386;28;20206;-82
2023/08/10 00:31:12;;;;;;;3.50;1.95;;;;;;;-145.69;69.22;52048.31;5092973;28;20210;-84
2023/08/10 00:33:39;;;;;;;4.15;2.75;;;;;;;-145.69;69.42;52030.50;5092536;28;20665;-82
2023/08/10 00:36:06;;;;;;;8.45;2.55;;;;;;;-145.69;70.37;52048.31;5092802;28;20211;-83
2023/08/10 00:38:33;;;;;;;6.07;2.80;;;;;;;-145.69;71.14;52040.41;5092838;28;20247;-83
2023/08/10 00:41:00;;;;;;;3.45;2.30;;;;;;;-145.69;70.92;52034.47;5092008;28;20186;-83
2023/08/10 00:43:28;;;;;;;5.50;2.10;;;;;;;-145.69;70.34;52040.41;5092769;28;20201;-83
2023/08/10 00:45:55;;;;;;;4.90;2.20;;;;;;;-145.69;70.38;52042.38;5092485;28;20194;-82
2023/08/10 00:48:22;;;;;;;2.80;2.28;;;;;;;-145.69;69.91;52020.59;5090955;28;20210;-83
2023/08/10 00:50:49;;;;;;;3.83;2.20;;;;;;;-145.69;69.55;52048.31;5092795;28;20301;-83
2023/08/10 00:53:18;;;;;;;3.47;2.30;;;;;;;-145.69;69.23;52018.63;5091798;28;20573;-83
2023/08/10 00:55:48;;;;;;;5.25;2.33;;;;;;;-145.69;69.29;52044.38;5092521;28;20217;-83
2023/08/10 00:58:15;;;;;;;3.22;2.28;;;;;;;-145.69;69.13;52026.53;5091596;28;20206;-83
2023/08/10 01:00:43;;;;;;;3.60;2.33;;;;;;;-145.69;68.90;52034.47;5091838;28;20209;-84
2023/08/10 01:03:09;;;;;;;6.47;2.00;;;;;;;-145.69;68.64;52034.47;5092618;28;20202;-84
2023/08/10 01:05:45;;;;;;;3.33;2.40;;;;;;;-145.69;68.49;52036.44;5092546;28;20720;-84
2023/08/10 01:08:16;;;;;;;4.95;2.20;;;;;;;-145.69;68.59;52034.47;5092546;28;20206;-83
2023/08/10 01:10:46;;;;;;;2.58;1.95;;;;;;;-145.69;68.46;52054.25;5092184;28;20204;-83
2023/08/10 01:13:20;;;;;;;4.38;2.00;;;;;;;-145.69;68.60;52004.75;5091902;28;20228;-82
2023/08/10 01:15:51;;;;;;;1.70;1.55;;;;;;;-145.69;68.44;52032.47;5091931;28;20222;-83
2023/08/10 01:18:25;;;;;;;3.58;2.20;;;;;;;-145.69;68.97;52036.44;5092254;28;20194;-84
2023/08/10 01:20:54;;;;;;;8.50;2.30;;;;;;;-145.69;68.87;52048.31;5092463;28;20201;-83
2023/08/10 01:23:31;;;;;;;4.10;1.90;;;;;;;-145.69;68.18;52052.28;5094903;28;20206;-85
2023/08/10 01:26:00;;;;;;;2.70;2.13;;;;;;;-145.69;68.89;52042.38;5094875;28;20414;-84
2023/08/10 01:28:27;;;;;;;4.88;1.92;;;;;;;-145.69;68.40;52050.31;5095101;28;20198;-84
2023/08/10 01:30:54;;;;;;;5.45;2.22;;;;;;;-145.69;68.94;52032.47;5095949;28;20533;-84
2023/08/10 01:33:20;;;;;;;3.40;2.20;;;;;;;-145.69;68.92;52012.69;5095735;28;20221;-84
2023/08/10 01:35:47;;;;;;;3.17;2.03;;;;;;;-145.69;68.61;52048.31;5095809;28;20206;-85
2023/08/10 01:38:13;;;;;;;2.92;1.73;;;;;;;-145.69;68.45;52008.72;5095926;28;20304;-84
2023/08/10 01:40:40;;;;;;;2.88;1.83;;;;;;;-145.69;68.92;52048.31;5094459;28;20212;-83
2023/08/10 01:43:08;;;;;;;4.85;2.60;;;;;;;-145.69;68.70;52028.53;5092343;28;20201;-83
2023/08/10 01:45:34;;;;;;;2.63;2.10;;;;;;;-145.69;68.18;52034.47;5095766;28;20202;-82
2023/08/10 01:48:04;;;;;;;3.00;1.90;;;;;;;-145.69;67.87;52008.72;5095063;28;20201;-83
2023/08/10 01:50:35;;;;;;;2.05;1.80;;;;;;;-145.69;67.52;52048.31;5095944;28;20288;-84
2023/08/10 01:53:08;;;;;;;5.32;2.45;;;;;;;-145.69;67.47;52012.69;5095398;28;20291;-83
2023/08/10 01:55:34;;;;;;;7.18;2.20;;;;;;;-145.69;68.00;52036.44;5095746;28;20263;-84
2023/08/10 01:58:01;;;;;;;2.95;2.10;;;;;;;-145.69;68.46;52032.47;5093692;28;20259;-83
2023/08/10 02:00:30;;;;;;;6.30;2.03;;;;;;;-145.69;67.96;52016.66;5093688;28;20255;-83
2023/08/10 02:02:56;;;;;;;4.65;1.98;;;;;;;-145.69;68.20;52042.38;5095366;28;20202;-83
2023/08/10 02:05:23;;;;;;;3.80;2.10;;;;;;;-145.69;68.49;52028.53;5094156;28;20556;-82
2023/08/10 02:07:49;;;;;;;3.33;2.22;;;;;;;-145.69;68.10;52004.75;5094949;28;20206;-83
2023/08/10 02:10:16;;;;;;;3.38;2.28;;;;;;;-145.69;67.83;52006.75;5094932;28;20190;-83
2023/08/10 02:12:43;;;;;;;3.30;2.17;;;;;;;-145.69;67.72;52028.53;5094669;28;20205;-83
2023/08/10 02:15:12;;;;;;;7.70;2.20;;;;;;;-145.69;67.55;52024.56;5094127;28;20224;-83
2023/08/10 02:17:41;;;;;;;4.72;2.00;;;;;;;-145.69;67.41;52034.47;5094093;28;20285;-83
2023/08/10 02:20:12;;;;;;;3.95;1.77;;;;;;;-145.69;67.50;52000.81;5094747;28;20202;-83
2023/08/10 02:22:39;;;;;;;2.38;1.80;;;;;;;-145.69;68.23;52032.47;5095020;28;20208;-83
2023/08/10 02:25:06;;;;;;;3.28;2.10;;;;;;;-145.69;67.97;52042.38;5094472;28;20248;-82
2023/08/10 02:27:33;;;;;;;2.97;1.80;;;;;;;-145.69;67.69;52046.34;5094960;28;20538;-83
2023/08/10 02:29:59;;;;;;;2.90;1.90;;;;;;;-145.69;67.78;52068.13;5094603;28;20433;-83
2023/08/10 02:32:26;;;;;;;2.85;1.88;;;;;;;-145.69;67.54;52044.38;5094074;28;20261;-83
2023/08/10 02:34:56;;;;;;;6.55;1.80;;;;;;;-145.69;67.24;52056.25;5093407;28;20222;-83
2023/08/10 02:37:22;;;;;;;3.40;1.88;;;;;;;-145.69;67.87;52046.34;5094590;28;20239;-83
2023/08/10 02:39:49;;;;;;;3.45;2.08;;;;;;;-145.69;68.15;52056.25;5094127;28;20198;-82
2023/08/10 02:42:16;;;;;;;3.72;2.35;;;;;;;-145.69;68.20;52072.09;5094129;28;20205;-82
2023/08/10 02:44:42;;;;;;;2.83;1.98;;;;;;;-145.69;68.07;52080.00;5094247;28;20209;-83
2023/08/10 02:47:09;;;;;;;3.75;2.17;;;;;;;-145.69;68.52;52083.97;5094621;28;20546;-82
2023/08/10 02:49:35;;;;;;;3.20;2.10;;;;;;;-145.69;69.07;52070.09;5094549;28;20202;-83
2023/08/10 02:52:04;;;;;;;3.80;2.30;;;;;;;-145.69;68.48;52080.00;5094176;28;20209;-83
2023/08/10 02:54:30;;;;;;;3.08;2.15;;;;;;;-145.69;68.78;52074.06;5094126;28;20226;-83
2023/08/10 02:56:57;;;;;;;3.92;2.15;;;;;;;-145.69;68.74;52060.22;5094081;28;20198;-83
2023/08/10 02:59:23;;;;;;;3.55;2.47;;;;;;;-145.69;70.63;52087.94;5094188;28;20209;-83
2023/08/10 03:01:50;;;;;;;7.93;2.42;;;;;;;-145.69;70.12;52076.03;5093786;28;20553;-82
2023/08/10 03:04:16;;;;;;;4.88;2.67;;;;;;;-145.69;70.48;52107.72;5092589;28;20205;-82
2023/08/10 03:06:43;;;;;;;4.40;2.45;;;;;;;-145.69;70.59;52044.38;5092666;28;20203;-83
2023/08/10 03:09:11;;;;;;;3.33;2.33;;;;;;;-145.69;70.53;52082.00;5093351;28;20209;-83
2023/08/10 03:11:38;;;;;;;5.32;2.65;;;;;;;-145.69;70.88;52068.13;5093923;28;20736;-82
2023/08/10 03:14:04;;;;;;;5.93;2.92;;;;;;;-145.69;72.09;52082.00;5094132;28;20218;-84
2023/08/10 03:16:31;;;;;;;4.60;3.20;;;;;;;-145.69;73.75;52093.88;5093717;28;20233;-83
2023/08/10 03:18:57;;;;;;;5.30;2.88;;;;;;;-145.69;74.17;52074.06;5093604;28;20200;-82
2023/08/10 03:21:24;;;;;;;4.45;2.97;;;;;;;-145.69;73.92;52083.97;5093453;28;20217;-84
2023/08/10 03:23:51;;;;;;;6.18;2.78;;;;;;;-145.69;74.43;52060.22;5092389;28;20560;-82
2023/08/10 03:26:19;;;;;;;5.70;2.88;;;;;;;-145.69;75.45;52099.81;5093808;28;20201;-83
2023/08/10 03:28:45;;;;;;;7.28;3.53;;;;;;;-145.69;74.87;52080.00;5093689;28;20206;-82
2023/08/10 03:31:12;;;;;;;6.45;3.00;;;;;;;-145.69;74.60;52048.31;5093472;28;20672;-82
2023/08/10 03:33:39;;;;;;;6.38;2.90;;;;;;;-145.69;74.25;52060.22;5081939;28;20235;-82
2023/08/10 03:36:06;;;;;;;3.92;2.75;;;;;;;-145.69;75.47;52083.97;5093208;28;20209;-82
2023/08/10 03:38:32;;;;;;;6.63;3.08;;;;;;;-145.69;74.44;52091.88;5093328;28;20201;-82
2023/08/10 03:40:59;;;;;;;4.55;2.92;;;;;;;-145.69;74.79;52107.72;5093160;28;20213;-81
2023/08/10 03:43:27;;;;;;;5.03;2.85;;;;;;;-145.69;74.61;52062.19;5093372;28;20198;-83
2023/08/10 03:45:53;;;;;;;6.03;2.95;;;;;;;-145.69;76.03;52087.94;5092960;28;20198;-83
2023/08/10 03:48:20;;;;;;;7.10;3.30;;;;;;;-145.69;74.97;52074.06;5091862;28;20198;-82
2023/08/10 03:50:47;;;;;;;6.80;3.20;;;;;;;-145.69;75.34;52087.94;5093368;28;20198;-84
2023/08/10 03:53:13;;;;;;;5.53;3.00;;;;;;;-145.69;75.77;52087.94;5093284;28;20198;-83
2023/08/10 03:55:40;;;;;;;6.85;3.55;;;;;;;-145.69;75.92;52085.94;5093404;28;20209;-83
2023/08/10 03:58:06;;;;;;;5.78;3.55;;;;;;;-145.69;76.26;52087.94;5093456;28;20206;-83
2023/08/10 04:00:34;;;;;;;7.77;3.50;;;;;;;-145.69;75.17;52064.16;5092835;28;20196;-83
2023/08/10 04:03:01;;;;;;;7.07;3.38;;;;;;;-145.69;75.79;52074.06;5092764;28;20247;-83
2023/08/10 04:05:28;;;;;;;8.82;2.90;;;;;;;-145.69;75.37;52111.69;5092854;28;20198;-82
2023/08/10 04:07:54;;;;;;;4.53;3.20;;;;;;;-145.69;74.99;52083.97;5093345;28;20194;-84
2023/08/10 04:10:21;;;;;;;7.03;3.40;;;;;;;-145.69;75.69;52125.56;5093455;28;20221;-83
2023/08/10 04:12:47;;;;;;;4.43;2.72;;;;;;;-145.69;74.50;52087.94;5092912;28;20530;-82
2023/08/10 04:15:14;;;;;;;3.00;2.58;;;;;;;-145.69;74.58;52101.78;5092213;28;20234;-81
2023/08/10 04:17:42;;;;;;;4.05;3.10;;;;;;;-145.69;76.98;52095.84;5092841;28;20202;-82
2023/08/10 04:20:09;;;;;;;7.30;3.60;;;;;;;-145.69;75.69;52087.94;5092722;28;20210;-83
2023/08/10 04:22:36;;;;;;;8.53;3.20;;;;;;;-145.69;75.17;52056.25;5093374;28;20202;-83
2023/08/10 04:25:03;;;;;;;5.23;3.07;;;;;;;-145.69;74.78;52085.94;5093061;28;20209;-82
2023/08/10 04:27:30;;;;;;;3.77;2.93;;;;;;;-145.69;74.68;52085.94;5093007;28;20206;-82
2023/08/10 04:29:57;;;;;;;7.43;3.27;;;;;;;-145.69;75.21;52111.69;5092568;28;20221;-83
2023/08/10 04:32:23;;;;;;;5.70;2.30;;;;;;;-145.69;74.41;52119.63;5092998;28;20198;-82
2023/08/10 04:34:52;;;;;;;7.30;3.20;;;;;;;-145.69;74.80;52072.09;5092230;28;20261;-83
2023/08/10 04:37:19;;;;;;;4.80;3.20;;;;;;;-145.69;75.93;52101.78;5092790;28;20209;-82
2023/08/10 04:39:45;;;;;;;6.87;3.50;;;;;;;-145.69;75.65;52083.97;5092166;28;20595;-82
2023/08/10 04:42:12;;;;;;;8.40;3.78;;;;;;;-145.69;76.25;52095.84;5092098;28;20203;-82
2023/08/10 04:44:38;;;;;;;7.55;3.70;;;;;;;-145.69;76.39;52097.84;5092258;28;20653;-82
2023/08/10 04:47:05;;;;;;;7.43;3.55;;;;;;;-145.69;75.85;52111.69;5092825;28;20725;-84
2023/08/10 04:49:33;;;;;;;7.03;3.40;;;;;;;-145.69;76.52;52123.56;5092626;28;20209;-82
2023/08/10 04:52:01;;;;;;;7.80;4.25;;;;;;;-145.69;76.80;52087.94;5092562;28;20640;-82
2023/08/10 04:54:28;;;;;;;7.13;3.85;;;;;;;-145.69;76.24;52105.75;5092609;28;20249;-84
2023/08/10 04:56:55;;;;;;;7.30;3.63;;;;;;;-145.69;76.39;52068.13;5094353;28;20616;-83
2023/08/10 04:59:22;;;;;;;6.57;3.80;;;;;;;-145.69;76.28;52095.84;5096391;28;20201;-83
2023/08/10 05:01:48;;;;;;;9.20;3.58;;;;;;;-145.69;76.72;52125.56;5095175;28;20252;-83
2023/08/10 05:04:15;;;;;;;5.53;3.33;;;;;;;-145.69;76.14;52113.66;5096625;28;20198;-84
2023/08/10 05:06:42;;;;;;;5.72;3.10;;;;;;;-145.69;76.04;52070.09;5096548;28;20718;-83
2023/08/10 05:09:10;;;;;;;4.00;2.83;;;;;;;-145.69;75.91;52111.69;5096841;28;20202;-84
2023/08/10 05:11:37;;;;;;;4.57;3.13;;;;;;;-145.69;76.34;52082.00;5096385;28;20198;-83
2023/08/10 05:14:04;;;;;;;6.10;3.20;;;;;;;-145.69;76.53;52089.91;5096292;28;20214;-83
2023/08/10 05:16:30;;;;;;;7.18;3.15;;;;;;;-145.69;76.52;52107.72;5096139;28;20577;-83
2023/08/10 05:18:57;;;;;;;4.13;3.08;;;;;;;-145.69;76.88;52085.94;5096252;28;20255;-83
2023/08/10 05:21:24;;;;;;;4.35;3.30;;;;;;;-145.69;77.76;52109.72;5095582;28;20843;-83
2023/08/10 05:23:50;;;;;;;3.97;3.17;;;;;;;-145.69;77.28;52107.72;5096457;28;20213;-83
2023/08/10 05:26:19;;;;;;;5.22;3.22;;;;;;;-145.69;77.03;52080.00;5095393;28;20220;-83
2023/08/10 05:28:45;;;;;;;5.15;3.08;;;;;;;-145.69;76.81;52060.22;5096125;28;20714;-82
2023/08/10 05:31:12;;;;;;;5.85;3.25;;;;;;;-145.69;77.02;52097.84;5095993;28;20202;-83
2023/08/10 05:33:39;;;;;;;7.68;3.78;;;;;;;-145.69;76.87;52068.13;5095891;28;20657;-84
2023/08/10 05:36:07;;;;;;;6.85;3.80;;;;;;;-145.69;76.95;52076.03;5096135;28;20206;-83
2023/08/10 05:38:34;;;;;;;6.72;3.50;;;;;;;-145.69;77.03;52095.84;5083862;28;20244;-83
2023/08/10 05:41:01;;;;;;;5.25;3.60;;;;;;;-145.69;77.09;52083.97;5078970;28;20198;-83
2023/08/10 05:43:29;;;;;;;7.07;3.88;;;;;;;-145.69;77.20;52087.94;5095384;28;20239;-83
2023/08/10 05:45:55;;;;;;;5.03;3.42;;;;;;;-145.69;76.91;52048.31;5095683;28;20396;-82
2023/08/10 05:48:22;;;;;;;4.85;3.47;;;;;;;-145.69;76.94;52099.81;5095258;28;20210;-82
2023/08/10 05:50:49;;;;;;;5.93;3.67;;;;;;;-145.69;76.99;52082.00;5095377;28;20664;-82
2023/08/10 05:53:15;;;;;;;4.05;2.97;;;;;;;-145.69;77.03;52091.88;5095764;28;20221;-82
2023/08/10 05:55:42;;;;;;;4.40;3.30;;;;;;;-145.69;77.12;52099.81;5095365;28;20245;-82
2023/08/10 05:58:09;;;;;;;4.70;3.10;;;;;;;-145.69;76.88;52085.94;5094716;28;20202;-82
2023/08/10 06:00:37;;;;;;;5.13;3.40;;;;;;;-145.69;76.96;52070.09;5095133;28;20206;-82
2023/08/10 06:03:04;;;;;;;4.65;2.90;;;;;;;-145.69;76.65;52080.00;5095027;28;20194;-83
2023/08/10 06:05:31;;;;;;;4.53;3.17;;;;;;;-145.69;76.87;52050.31;5095011;28;20568;-83
2023/08/10 06:07:57;;;;;;;7.95;3.50;;;;;;;-145.69;77.17;52097.84;5094397;28;20191;-83
2023/08/10 06:10:24;;;;;;;4.78;3.28;;;;;;;-145.69;77.15;52072.09;5095267;28;20217;-83
2023/08/10 06:12:51;;;;;;;4.57;2.83;;;;;;;-145.69;76.85;52072.09;5094990;28;20200;-83
2023/08/10 06:15:18;;;;;;;7.10;3.38;;;;;;;-145.69;77.00;52064.16;5095184;28;20237;-83
2023/08/10 06:17:46;;;;;;;4.65;3.28;;;;;;;-145.69;76.87;52070.09;5094780;28;20205;-82
2023/08/10 06:20:16;;;;;;;4.57;3.50;;;;;;;-145.69;76.96;52085.94;5095091;28;20198;-83
2023/08/10 06:22:43;;;;;;;7.68;3.40;;;;;;;-145.69;76.89;52072.09;5094864;28;20206;-83
2023/08/10 06:25:13;;;;;;;4.75;3.30;;;;;;;-145.69;77.25;52058.22;5094930;28;20206;-83
2023/08/10 06:27:40;;;;;;;8.68;3.63;;;;;;;-145.69;77.00;52064.16;5094500;28;20198;-83
2023/08/10 06:30:09;;;;;;;6.63;3.58;;;;;;;-145.69;77.06;52046.34;5094503;28;20198;-83
2023/08/10 06:32:36;;;;;;;4.82;3.53;;;;;;;-145.69;77.20;52064.16;5093818;28;20198;-82
2023/08/10 06:35:08;;;;;;;6.15;3.40;;;;;;;-145.69;76.78;52046.34;5094535;28;20302;-83
2023/08/10 06:37:35;;;;;;;4.40;3.20;;;;;;;-145.69;77.76;52046.34;5094275;28;20288;-82
2023/08/10 06:40:05;;;;;;;6.32;3.60;;;;;;;-145.69;77.89;52036.44;5094716;28;20221;-82
2023/08/10 06:42:31;;;;;;;5.63;3.30;;;;;;;-145.69;78.13;52020.59;5094396;28;20259;-82
2023/08/10 06:44:58;;;;;;;9.43;3.58;;;;;;;-145.69;76.91;52050.31;5092664;28;20202;-83
2023/08/10 06:47:24;;;;;;;6.00;3.30;;;;;;;-145.69;77.13;52036.44;5094451;28;20194;-82
2023/08/10 06:49:51;;;;;;;4.78;2.97;;;;;;;-145.69;76.52;52072.09;5094245;28;20198;-82
2023/08/10 06:52:19;;;;;;;4.90;2.70;;;;;;;-145.69;75.45;52024.56;5095569;28;20200;-82
2023/08/10 06:54:45;;;;;;;3.90;2.40;;;;;;;-145.69;75.04;52028.53;5114651;28;20221;-82
2023/08/10 06:57:12;;;;;;;5.13;2.88;;;;;;;-145.69;74.72;52008.72;5114569;28;20204;-82
2023/08/10 06:59:38;;;;;;;3.60;2.50;;;;;;;-145.69;72.83;52020.59;5114321;28;20652;-83
2023/08/10 07:02:05;;;;;;;4.00;2.50;;;;;;;-145.69;73.31;52068.13;5114086;28;20598;-82
2023/08/10 07:04:32;;;;;;;5.18;2.80;;;;;;;-145.69;72.15;52050.31;5095366;28;20281;-82
2023/08/10 07:06:59;;;;;;;4.75;2.50;;;;;;;-145.69;70.46;52030.50;5093961;28;20560;-82
2023/08/10 07:09:26;;;;;;;3.20;2.67;;;;;;;-145.69;70.27;52032.47;5093634;28;20194;-82
2023/08/10 07:11:53;;;;;;;7.78;2.47;;;;;;;-145.69;70.13;52038.44;5092923;28;20194;-82
2023/08/10 07:14:20;;;;;;;4.25;2.38;;;;;;;-145.69;68.00;52074.06;5093619;28;20194;-82
2023/08/10 07:16:46;;;;;;;7.28;2.63;;;;;;;-145.69;69.60;52000.81;5092235;28;20358;-82
2023/08/10 07:19:13;;;;;;;4.97;2.10;;;;;;;-145.69;69.23;52036.44;5092008;28;20229;-82
2023/08/10 07:21:39;;;;;;;5.15;2.15;;;;;;;-145.69;69.39;52010.69;5093446;28;20597;-83
2023/08/10 07:24:06;;;;;;;11.82;2.58;;;;;;;-145.69;68.42;52032.47;5093560;28;20573;-83
2023/08/10 07:26:34;;;;;;;2.55;2.22;;;;;;;-145.69;68.77;52022.59;5093617;28;20195;-83
2023/08/10 07:29:01;;;;;;;2.45;1.90;;;;;;;-145.69;68.92;52038.44;5093901;28;20212;-83
2023/08/10 07:31:30;;;;;;;2.75;2.10;;;;;;;-145.69;69.17;52030.50;5093747;28;20216;-83
2023/08/10 07:33:56;;;;;;;3.08;2.20;;;;;;;-145.69;68.64;52014.66;5092327;28;20193;-83
2023/08/10 07:36:23;;;;;;;7.55;2.60;;;;;;;-145.69;68.79;52004.75;5075455;28;20241;-84
2023/08/10 07:38:50;;;;;;;3.83;2.30;;;;;;;-145.69;69.23;52020.59;5073076;28;20690;-83
2023/08/10 07:41:16;;;;;;;6.82;2.50;;;;;;;-145.69;68.71;52012.69;5076910;28;20572;-83
2023/08/10 07:43:44;;;;;;;5.90;2.42;;;;;;;-145.69;67.50;52014.66;5093443;28;20198;-83
2023/08/10 07:46:12;;;;;;;3.40;2.53;;;;;;;-145.69;67.10;51996.84;5093353;28;20206;-83
2023/08/10 07:48:42;;;;;;;3.95;2.38;;;;;;;-145.69;66.37;52032.47;5092062;28;20259;-83
2023/08/10 07:51:09;;;;;;;5.93;2.40;;;;;;;-145.69;65.61;52000.81;5093392;28;20202;-83
2023/08/10 07:53:35;;;;;;;3.70;2.38;;;;;;;-145.69;64.22;52006.75;5092256;28;20209;-85
2023/08/10 07:56:01;;;;;;;3.58;2.05;;;;;;;-145.69;64.06;51992.88;5093625;28;20230;-85
2023/08/10 07:58:28;;;;;;;4.28;2.17;;;;;;;-145.69;63.34;52008.72;5093777;28;20194;-85
2023/08/10 08:00:56;;;;;;;3.60;2.00;;;;;;;-145.69;62.63;51996.84;5093462;28;20198;-85
2023/08/10 08:03:23;;;;;;;3.00;2.00;;;;;;;-145.69;62.37;51981.00;5093256;28;20202;-85
2023/08/10 08:05:49;;;;;;;5.15;2.00;;;;;;;-145.69;61.92;51967.13;5093545;28;20198;-85
2023/08/10 08:08:16;;;;;;;4.07;1.98;;;;;;;-145.69;61.23;51979.03;5093409;28;20198;-86
2023/08/10 08:10:42;;;;;;;5.47;2.03;;;;;;;-145.69;61.09;52000.81;5092203;28;20613;-86
2023/08/10 08:13:09;;;;;;;5.25;2.30;;;;;;;-145.69;59.81;52020.59;5093203;28;20224;-86
2023/08/10 08:15:36;;;;;;;3.42;2.25;;;;;;;-145.69;59.13;51965.16;5093323;28;20241;-85
2023/08/10 08:18:43;;;;;;;3.88;2.33;;;;;;;-145.69;57.75;51959.22;5093660;28;20284;-84
2023/08/10 08:21:10;;;;;;;3.97;2.28;;;;;;;-145.69;57.95;51961.19;5089339;28;20190;-85
2023/08/10 08:23:36;;;;;;;5.57;2.42;;;;;;;-145.69;56.57;51961.19;5093008;28;20285;-85
2023/08/10 08:26:03;;;;;;;3.25;2.05;;;;;;;-145.69;55.40;51967.13;5092942;28;20194;-84
2023/08/10 08:28:30;;;;;;;3.25;2.10;;;;;;;-145.69;54.08;51973.06;5092743;28;20210;-85
2023/08/10 08:30:56;;;;;;;4.10;2.10;;;;;;;-145.69;56.50;51969.13;5074900;28;20202;-85
2023/08/10 08:33:23;;;;;;;3.55;2.17;;;;;;;-145.69;54.58;51947.34;5086979;28;20190;-86
2023/08/10 08:35:51;;;;;;;3.40;1.75;;;;;;;-145.69;50.91;51961.19;5097222;28;20232;-86
2023/08/10 08:38:19;;;;;;;3.40;1.88;;;;;;;-145.69;52.13;51943.38;5097479;28;20197;-84
2023/08/10 08:40:45;;;;;;;4.10;1.95;;;;;;;-145.69;50.95;51953.28;5060707;28;20195;-86
2023/08/10 08:43:12;;;;;;;4.15;2.05;;;;;;;-145.69;51.44;51961.19;5097016;28;20197;-86
2023/08/10 08:45:40;;;;;;;2.72;1.85;;;;;;;-145.69;50.37;51984.97;5097184;28;20200;-86
2023/08/10 08:48:07;;;;;;;3.35;2.05;;;;;;;-145.69;50.90;51973.06;5097048;28;20565;-85
2023/08/10 08:50:36;;;;;;;3.63;1.90;;;;;;;-145.69;50.54;51913.69;5097084;28;20202;-85
2023/08/10 08:53:05;;;;;;;3.65;2.05;;;;;;;-145.69;49.96;51947.34;5095915;28;20229;-86
2023/08/10 08:55:32;;;;;;;4.18;1.92;;;;;;;-145.69;49.56;51953.28;5096777;28;20229;-86
2023/08/10 08:57:59;;;;;;;3.20;1.55;;;;;;;-145.69;49.07;51977.03;5095671;28;20232;-86
2023/08/10 09:00:25;;;;;;;4.13;2.20;;;;;;;-145.69;46.72;51949.31;5096992;28;20213;-85
2023/08/10 09:02:52;;;;;;;2.83;1.55;;;;;;;-145.69;46.26;51941.41;5094986;28;20284;-85
2023/08/10 09:05:19;;;;;;;2.80;1.50;;;;;;;-145.69;44.36;51955.25;5096529;28;20202;-83
2023/08/10 09:07:46;;;;;;;3.50;1.95;;;;;;;-145.69;43.01;51933.47;5096231;28;20198;-85
2023/08/10 09:10:14;;;;;;;3.15;2.03;;;;;;;-145.69;42.17;51933.47;5096637;28;20534;-86
2023/08/10 09:12:41;;;;;;;2.25;1.40;;;;;;;-145.69;42.28;51937.44;5096189;28;20213;-81
2023/08/10 09:15:10;;;;;;;1.70;1.50;;;;;;;-145.69;42.05;51955.25;5096076;28;20240;-85
2023/08/10 09:17:39;;;;;;;5.85;1.30;;;;;;;-145.69;42.04;51931.50;5096211;28;20289;-84
2023/08/10 09:20:08;;;;;;;2.97;1.60;;;;;;;-145.69;42.28;51925.56;5096066;28;20202;-84
2023/08/10 09:22:37;;;;;;;2.90;1.60;;;;;;;-145.69;41.34;51925.56;5096364;28;20201;-86
2023/08/10 09:25:05;;;;;;;2.90;1.20;;;;;;;-145.69;41.52;51913.69;5096310;28;20202;-81
2023/08/10 09:27:33;;;;;;;3.05;1.42;;;;;;;-145.69;41.57;51927.53;5095875;28;20202;-84
2023/08/10 09:30:02;;;;;;;3.55;1.63;;;;;;;-145.69;41.90;51907.72;5096091;28;20197;-84
2023/08/10 09:32:28;;;;;;;2.55;1.58;;;;;;;-145.69;41.57;51905.75;5096172;28;20194;-82
2023/08/10 09:34:55;;;;;;;2.20;1.65;;;;;;;-145.69;41.82;51937.44;5095736;28;20667;-85
2023/08/10 09:37:23;;;;;;;4.90;1.67;;;;;;;-145.69;42.21;51927.53;5095489;28;20213;-84
2023/08/10 09:39:54;;;;;;;3.63;1.70;;;;;;;-145.69;41.93;51921.59;5096073;28;20285;-84
2023/08/10 09:42:21;;;;;;;3.78;1.50;;;;;;;-145.69;41.96;51925.56;5087615;28;20201;-86
2023/08/10 09:44:50;;;;;;;3.08;1.90;;;;;;;-145.69;41.34;51899.81;5076467;28;20228;-87
2023/08/10 09:47:18;;;;;;;2.28;1.60;;;;;;;-145.69;41.96;51905.75;5075843;28;20214;-86
2023/08/10 09:49:54;;;;;;;2.33;1.60;;;;;;;-145.69;43.07;51927.53;5076236;28;20206;-84
2023/08/10 09:52:21;;;;;;;5.45;1.52;;;;;;;-145.69;41.45;51913.69;5075454;28;20565;-85
2023/08/10 09:54:48;;;;;;;2.17;1.55;;;;;;;-145.69;41.80;51895.84;5094340;28;20190;-88
2023/08/10 09:57:16;;;;;;;2.92;1.70;;;;;;;-145.69;41.11;51907.72;5096238;28;20237;-87
2023/08/10 09:59:42;;;;;;;2.90;1.83;;;;;;;-145.69;41.25;51891.88;5096007;28;20194;-88
2023/08/10 10:02:11;;;;;;;4.07;1.55;;;;;;;-145.69;41.51;51947.34;5096089;28;20212;-85
2023/08/10 10:04:38;;;;;;;1.83;1.50;;;;;;;-145.69;42.03;51891.88;5094494;28;20246;-87
2023/08/10 10:07:07;;;;;;;3.15;1.92;;;;;;;-145.69;41.40;51931.50;5095187;28;20194;-87
2023/08/10 10:09:37;;;;;;;3.20;1.70;;;;;;;-145.69;41.82;51893.88;5096728;28;20202;-89
2023/08/10 10:12:07;;;;;;;3.00;1.80;;;;;;;-145.69;41.48;51923.56;5096037;28;20436;-88
2023/08/10 10:14:34;;;;;;;2.45;1.60;;;;;;;-145.69;42.16;51933.47;5096372;28;20190;-88
2023/08/10 10:17:03;;;;;;;2.72;1.80;;;;;;;-145.69;42.16;51893.88;5094828;28;20700;-88
2023/08/10 10:19:31;;;;;;;3.25;2.13;;;;;;;-145.69;42.69;51897.84;5096252;28;20229;-87
2023/08/10 10:21:59;;;;;;;2.70;1.80;;;;;;;-145.69;42.05;51939.41;5095371;28;20206;-87
2023/08/10 10:24:28;;;;;;;5.28;1.85;;;;;;;-145.69;42.18;51876.06;5095686;28;20534;-87
2023/08/10 10:26:59;;;;;;;3.28;2.10;;;;;;;-145.69;43.64;51907.72;5096058;28;20222;-85
2023/08/10 10:29:36;;;;;;;3.42;1.75;;;;;;;-145.69;43.97;51925.56;5095711;28;20198;-88
2023/08/10 10:32:12;;;;;;;2.65;1.70;;;;;;;-145.69;43.40;51927.53;5095718;28;20201;-88
2023/08/10 10:34:40;;;;;;;2.83;1.75;;;;;;;-145.69;43.10;51889.91;5095784;28;20201;-85
2023/08/10 10:37:08;;;;;;;3.25;1.83;;;;;;;-145.69;40.57;51901.78;5094471;28;20306;-81
2023/08/10 10:39:35;;;;;;;2.92;2.00;;;;;;;-145.69;40.37;51897.84;5094237;28;20197;-82
2023/08/10 10:42:02;;;;;;;5.07;1.90;;;;;;;-145.69;40.01;51889.91;5094026;28;20703;-85
2023/08/10 10:44:59;;;;;;;3.20;1.77;;;;;;;-145.69;40.83;51927.53;5100093;28;20653;-83
2023/08/10 10:47:35;;;;;;;2.47;1.52;;;;;;;-145.69;39.98;51889.91;5095212;28;20202;-84
2023/08/10 10:50:14;;;;;;;2.47;1.60;;;;;;;-145.69;40.24;51885.94;5092814;28;20282;-85
2023/08/10 10:52:40;;;;;;;3.33;1.70;;;;;;;-145.69;40.71;51874.06;5094191;28;20679;-84
2023/08/10 10:55:10;;;;;;;3.97;2.03;;;;;;;-145.69;40.58;51913.69;5093520;28;20208;-84
2023/08/10 10:57:38;;;;;;;4.95;1.92;;;;;;;-145.69;39.85;51876.06;5094220;28;20230;-83
2023/08/10 11:00:07;;;;;;;4.00;2.00;;;;;;;-145.69;39.91;51887.94;5093472;28;20198;-86
2023/08/10 11:02:34;;;;;;;5.88;1.80;;;;;;;-145.69;41.50;51909.72;5094627;28;20636;-86
2023/08/10 11:05:00;;;;;;;4.05;1.88;;;;;;;-145.69;38.88;51921.59;5093654;28;20205;-84
2023/08/10 11:07:28;;;;;;;4.80;1.95;;;;;;;-145.69;40.22;51889.91;5094472;28;20210;-86
2023/08/10 11:09:55;;;;;;;4.63;1.95;;;;;;;-145.69;39.26;51917.63;5093203;28;20205;-86
2023/08/10 11:12:21;;;;;;;2.47;1.67;;;;;;;-145.69;39.96;51925.56;5094249;28;20224;-85
2023/08/10 11:14:57;;;;;;;4.15;1.60;;;;;;;-145.69;41.39;51893.88;5132078;27;20903;-84
2023/08/10 11:17:26;;;;;;;3.47;1.90;;;;;;;-145.69;40.43;51903.78;5131762;28;20216;-87
2023/08/10 11:19:54;;;;;;;3.08;2.00;;;;;;;-145.69;39.86;51905.75;5131465;28;20689;-86